Time;durP1;ratioP1;P1;durP2;ratioP2;P2;SDS_P1;SDS_P2;PMS_P1;PMS_P2;Temp;Humidity;BMP_temperature;BMP_pressure;BME280_temperature;BME280_humidity;BME280_pressure;Samples;Min_cycle;Max_cycle;Signal;HPM_P1;HPM_P2
2023/09/23 00:03:50;;;;;;;0.00;0.00;;;;;;;14.36;73.95;99696.09;10427864;28;20048;-56
2023/09/23 00:08:52;;;;;;;0.00;0.00;;;;;;;14.32;73.88;99700.28;10434993;28;20080;-55
2023/09/23 00:13:54;;;;;;;0.00;0.00;;;;;;;14.32;73.86;99699.44;10432175;28;20412;-56
2023/09/23 00:18:56;;;;;;;0.00;0.00;;;;;;;14.23;74.21;99702.38;10425558;28;20223;-55
2023/09/23 00:24:00;;;;;;;0.00;0.00;;;;;;;14.21;74.18;99709.88;10428118;28;20069;-54
2023/09/23 00:29:01;;;;;;;0.00;0.00;;;;;;;14.24;74.07;99714.06;10415511;28;20064;-55
2023/09/23 00:34:03;;;;;;;0.00;0.00;;;;;;;14.19;74.00;99722.78;10431040;28;20755;-54
2023/09/23 00:39:05;;;;;;;0.00;0.00;;;;;;;14.16;73.98;99731.34;10424017;28;20076;-56
2023/09/23 00:44:06;;;;;;;0.00;0.00;;;;;;;14.20;73.82;99737.97;10425695;28;20076;-54
2023/09/23 00:49:08;;;;;;;0.00;0.00;;;;;;;14.20;74.15;99742.56;10429073;28;20041;-54
2023/09/23 00:54:13;;;;;;;0.00;0.00;;;;;;;14.22;73.96;99748.56;10430509;28;20049;-57
2023/09/23 00:59:17;;;;;;;0.00;0.00;;;;;;;14.19;74.01;99752.53;10427012;28;20053;-56
2023/09/23 01:04:18;;;;;;;0.00;0.00;;;;;;;14.26;73.72;99744.41;10432146;28;20058;-55
2023/09/23 01:09:21;;;;;;;0.00;0.00;;;;;;;14.24;74.07;99754.59;10433912;28;20057;-54
2023/09/23 01:14:23;;;;;;;0.00;0.00;;;;;;;14.19;74.15;99743.59;10426665;28;20056;-55
2023/09/23 01:19:26;;;;;;;0.00;0.00;;;;;;;14.17;74.08;99740.28;10428393;28;20467;-54
2023/09/23 01:24:30;;;;;;;0.00;0.00;;;;;;;14.14;74.12;99743.38;10427908;28;20045;-57
2023/09/23 01:29:32;;;;;;;0.00;0.00;;;;;;;14.19;73.93;99741.72;10426326;28;20888;-55
2023/09/23 01:34:34;;;;;;;0.00;0.00;;;;;;;14.20;74.15;99745.25;10407394;28;20521;-56
2023/09/23 01:39:40;;;;;;;0.00;0.00;;;;;;;14.21;74.00;99758.53;10422911;28;20056;-56
2023/09/23 01:44:43;;;;;;;3.53;0.17;;;;;;;14.16;74.00;99760.22;10422257;28;20073;-56
2023/09/23 01:49:45;;;;;;;0.13;0.10;;;;;;;14.18;74.02;99758.97;10421872;28;20061;-57
2023/09/23 01:54:47;;;;;;;0.00;0.00;;;;;;;14.20;73.92;99764.19;10419755;28;20187;-56
2023/09/23 01:59:49;;;;;;;2.55;0.05;;;;;;;14.21;73.45;99776.63;10424395;28;20052;-57
2023/09/23 02:04:50;;;;;;;0.70;0.20;;;;;;;14.22;73.70;99775.59;10420533;28;20109;-56
2023/09/23 02:09:52;;;;;;;3.72;0.10;;;;;;;14.18;73.67;99793.28;10421737;28;20172;-56
2023/09/23 02:14:54;;;;;;;0.45;0.10;;;;;;;14.08;73.70;99802.69;10421781;28;20053;-56
2023/09/23 02:19:57;;;;;;;0.20;0.13;;;;;;;14.08;73.57;99799.16;10418485;28;20511;-56
2023/09/23 02:24:58;;;;;;;0.50;0.20;;;;;;;14.02;73.66;99810.78;10419326;28;20049;-56
2023/09/23 02:30:02;;;;;;;0.40;0.20;;;;;;;13.94;73.69;99816.41;10402374;28;20053;-56
2023/09/23 02:35:04;;;;;;;1.15;0.10;;;;;;;13.87;73.81;99813.75;10415741;28;20369;-56
2023/09/23 02:40:16;;;;;;;1.55;0.20;;;;;;;13.80;73.68;99829.97;10421045;28;20049;-55
2023/09/23 02:45:18;;;;;;;0.50;0.20;;;;;;;13.78;73.87;99833.91;10417773;28;20501;-54
2023/09/23 02:50:20;;;;;;;1.13;0.30;;;;;;;13.81;73.52;99847.84;10423668;28;20126;-54
2023/09/23 02:55:22;;;;;;;0.40;0.10;;;;;;;13.82;73.48;99859.47;10422518;28;20106;-54
2023/09/23 03:00:29;;;;;;;0.57;0.20;;;;;;;13.67;73.69;99862.41;10416428;28;20687;-54
2023/09/23 03:05:31;;;;;;;2.03;0.13;;;;;;;13.61;73.70;99866.75;10411318;28;20056;-54
2023/09/23 03:10:39;;;;;;;0.75;0.45;;;;;;;13.58;73.95;99877.13;10425480;28;20491;-54
2023/09/23 03:15:51;;;;;;;0.65;0.17;;;;;;;13.58;73.76;99880.66;10428033;28;20559;-53
2023/09/23 03:20:53;;;;;;;5.35;0.20;;;;;;;13.51;73.80;99890.66;10425188;28;20060;-54
2023/09/23 03:25:56;;;;;;;2.58;0.20;;;;;;;13.41;74.25;99896.44;10428347;28;20053;-55
2023/09/23 03:31:01;;;;;;;1.17;0.20;;;;;;;13.43;74.01;99904.34;10417710;28;20144;-54
2023/09/23 03:36:03;;;;;;;1.10;0.30;;;;;;;13.37;73.99;99900.59;10418358;28;20065;-53
2023/09/23 03:41:04;;;;;;;1.58;0.20;;;;;;;13.32;73.94;99902.25;10432916;28;20057;-56
2023/09/23 03:46:16;;;;;;;5.15;0.50;;;;;;;13.22;74.18;99902.63;10424328;28;20146;-57
2023/09/23 03:51:18;;;;;;;1.35;0.20;;;;;;;13.17;74.24;99907.78;10428470;28;20129;-55
2023/09/23 03:56:24;;;;;;;0.40;0.20;;;;;;;13.09;74.55;99909.66;10429314;28;20057;-57
2023/09/23 04:01:26;;;;;;;3.00;0.85;;;;;;;13.07;74.77;99924.34;10422698;28;20041;-55
2023/09/23 04:06:28;;;;;;;0.40;0.25;;;;;;;12.95;75.21;99916.00;10426425;28;20056;-55
2023/09/23 04:11:29;;;;;;;0.35;0.20;;;;;;;12.93;74.79;99919.97;10427563;28;20037;-54
2023/09/23 04:16:31;;;;;;;1.65;0.45;;;;;;;12.87;75.21;99925.16;10408478;28;20055;-56
2023/09/23 04:21:32;;;;;;;1.02;0.32;;;;;;;12.88;75.31;99913.31;10427619;28;20047;-54
2023/09/23 04:26:34;;;;;;;1.25;0.40;;;;;;;12.87;75.14;99927.84;10408236;28;20054;-56
2023/09/23 04:31:35;;;;;;;1.58;0.30;;;;;;;12.88;75.34;99932.19;10423253;28;20056;-56
2023/09/23 04:36:37;;;;;;;3.05;0.52;;;;;;;12.92;74.86;99956.91;10425723;28;20076;-55
2023/09/23 04:41:40;;;;;;;4.72;0.40;;;;;;;12.90;74.72;99961.66;10424916;28;20511;-54
2023/09/23 04:46:44;;;;;;;2.35;0.40;;;;;;;12.92;74.94;99965.00;10421740;28;20120;-55
2023/09/23 04:51:46;;;;;;;3.22;0.50;;;;;;;12.93;74.86;99968.50;10391581;28;1033692;-56
2023/09/23 04:56:48;;;;;;;4.55;1.15;;;;;;;12.98;74.53;99979.56;10424555;28;20049;-54
2023/09/23 05:01:50;;;;;;;4.15;0.57;;;;;;;12.97;74.85;99988.66;10432250;28;20044;-54
2023/09/23 05:06:51;;;;;;;2.75;0.50;;;;;;;13.03;74.38;99990.56;10430297;28;20162;-53
2023/09/23 05:11:53;;;;;;;1.13;0.47;;;;;;;13.05;74.30;99991.19;10410195;28;20046;-58
2023/09/23 05:16:54;;;;;;;2.00;0.70;;;;;;;13.05;73.91;100010.06;10423333;28;20096;-59
2023/09/23 05:21:56;;;;;;;2.65;0.47;;;;;;;12.96;74.49;100020.22;10427125;28;20037;-57
2023/09/23 05:26:59;;;;;;;1.52;0.43;;;;;;;12.98;74.31;100017.31;10421951;28;20059;-57
2023/09/23 05:32:02;;;;;;;1.88;0.52;;;;;;;12.99;74.23;100029.78;10422235;28;20407;-57
2023/09/23 05:37:04;;;;;;;2.63;0.57;;;;;;;13.03;74.11;100047.22;10426805;28;20462;-58
2023/09/23 05:42:05;;;;;;;4.40;1.00;;;;;;;13.05;74.11;100042.47;10420068;28;20065;-58
2023/09/23 05:47:08;;;;;;;2.92;1.05;;;;;;;13.10;73.86;100050.78;10410305;28;20045;-57
2023/09/23 05:52:11;;;;;;;1.55;0.70;;;;;;;13.13;74.02;100060.34;10420408;28;20129;-58
2023/09/23 05:57:13;;;;;;;4.28;1.00;;;;;;;13.15;74.16;100058.28;10425957;28;20514;-58
2023/09/23 06:02:14;;;;;;;4.05;0.90;;;;;;;13.19;74.39;100065.81;10422900;28;20072;-58
2023/09/23 06:07:17;;;;;;;1.23;0.82;;;;;;;13.18;74.54;100063.28;10426241;28;20469;-57
2023/09/23 06:12:18;;;;;;;2.63;0.90;;;;;;;13.21;74.63;100074.53;10407241;28;20836;-57
2023/09/23 06:17:20;;;;;;;2.40;1.13;;;;;;;13.27;74.53;100089.09;10423559;28;20125;-58
2023/09/23 06:22:22;;;;;;;6.13;1.77;;;;;;;13.30;74.50;100091.41;10417919;28;20546;-55
2023/09/23 06:27:24;;;;;;;1.73;0.80;;;;;;;13.35;74.56;100113.25;10425393;28;20139;-56
2023/09/23 06:32:25;;;;;;;1.73;0.80;;;;;;;13.46;74.23;100109.13;10417659;28;20054;-55
2023/09/23 06:37:27;;;;;;;1.73;0.90;;;;;;;13.41;74.58;100136.75;10418718;28;20057;-55
2023/09/23 06:42:28;;;;;;;3.70;1.30;;;;;;;13.55;74.20;100134.13;10404380;28;20049;-56
2023/09/23 06:47:30;;;;;;;2.53;0.90;;;;;;;13.65;74.50;100135.41;10428384;28;20056;-54
2023/09/23 06:52:32;;;;;;;3.53;2.33;;;;;;;13.66;74.68;100147.88;10430864;28;20492;-55
2023/09/23 06:57:37;;;;;;;2.35;1.05;;;;;;;13.79;74.68;100151.66;10427917;28;20404;-56
2023/09/23 07:02:38;;;;;;;2.33;1.10;;;;;;;13.93;74.56;100157.97;10426391;28;20048;-55
2023/09/23 07:07:40;;;;;;;1.52;1.15;;;;;;;14.03;74.41;100163.81;10432952;28;20045;-55
2023/09/23 07:12:41;;;;;;;2.30;0.80;;;;;;;14.15;74.45;100161.34;10429391;28;20475;-57
2023/09/23 07:17:43;;;;;;;8.35;1.40;;;;;;;14.19;74.81;100168.00;10426847;28;20496;-56
2023/09/23 07:22:44;;;;;;;4.75;1.25;;;;;;;14.30;74.85;100180.94;10426865;28;20068;-56
2023/09/23 07:27:46;;;;;;;1.60;0.93;;;;;;;14.43;74.51;100177.41;10421356;28;20037;-58
2023/09/23 07:32:48;;;;;;;3.25;1.05;;;;;;;14.54;74.50;100181.38;10414042;28;20041;-56
2023/09/23 07:37:50;;;;;;;2.72;1.27;;;;;;;14.56;74.44;100190.13;10434479;28;20049;-55
2023/09/23 07:42:51;;;;;;;2.60;0.70;;;;;;;14.59;74.55;100190.59;10416700;28;20048;-56
2023/09/23 07:47:53;;;;;;;4.18;0.95;;;;;;;14.65;74.40;100199.72;10423562;28;20053;-56
2023/09/23 07:52:54;;;;;;;3.90;1.20;;;;;;;14.96;73.56;100199.13;10411785;28;20107;-58
2023/09/23 07:57:56;;;;;;;1.48;0.60;;;;;;;14.93;73.42;100214.94;10428396;28;20057;-58
2023/09/23 08:02:57;;;;;;;3.70;1.10;;;;;;;15.03;72.58;100213.50;10421811;28;20137;-59
2023/09/23 08:07:59;;;;;;;3.80;0.90;;;;;;;15.11;72.61;100226.00;10427820;28;20073;-59
2023/09/23 08:13:02;;;;;;;4.72;0.90;;;;;;;15.36;71.94;100228.88;10425105;28;20053;-59
2023/09/23 08:18:04;;;;;;;3.25;0.80;;;;;;;15.64;71.30;100238.66;10406259;28;20510;-58
2023/09/23 08:23:05;;;;;;;5.88;0.77;;;;;;;15.92;70.70;100238.38;10419642;28;20060;-59
2023/09/23 08:28:07;;;;;;;2.72;0.60;;;;;;;16.10;70.50;100259.38;10422922;28;20056;-58
2023/09/23 08:33:09;;;;;;;2.17;0.55;;;;;;;16.25;70.09;100262.66;10425579;28;20461;-59
2023/09/23 08:38:10;;;;;;;2.58;0.40;;;;;;;16.02;69.17;100268.56;10425479;28;20049;-59
2023/09/23 08:43:12;;;;;;;1.17;0.40;;;;;;;16.08;68.80;100266.88;10419014;28;20049;-58
2023/09/23 08:48:15;;;;;;;2.65;1.00;;;;;;;16.17;68.58;100254.75;10424686;28;20832;-60
2023/09/23 08:53:19;;;;;;;4.78;0.40;;;;;;;16.31;68.33;100263.69;10423877;28;20077;-60
2023/09/23 08:58:20;;;;;;;1.13;0.20;;;;;;;16.26;67.44;100274.34;10420488;28;20061;-57
2023/09/23 09:03:22;;;;;;;1.30;0.25;;;;;;;16.63;67.00;100286.25;10421517;28;20053;-60
2023/09/23 09:08:24;;;;;;;2.38;0.40;;;;;;;16.77;66.72;100291.59;10421059;28;20057;-60
2023/09/23 09:13:25;;;;;;;0.43;0.20;;;;;;;16.92;65.99;100291.31;10420975;28;20156;-59
2023/09/23 09:18:28;;;;;;;1.30;0.30;;;;;;;17.13;65.45;100293.69;10420346;28;20056;-57
2023/09/23 09:23:30;;;;;;;3.13;0.30;;;;;;;17.34;65.21;100299.81;10420098;28;20045;-57
2023/09/23 09:28:32;;;;;;;1.23;0.30;;;;;;;17.47;64.86;100294.22;10426798;28;20053;-56
2023/09/23 09:33:37;;;;;;;4.90;0.50;;;;;;;17.51;64.42;100300.88;10418373;28;20129;-56
2023/09/23 09:38:41;;;;;;;1.00;0.20;;;;;;;17.49;63.58;100315.75;10415537;28;20156;-56
2023/09/23 09:43:45;;;;;;;0.73;0.43;;;;;;;17.48;63.25;100308.69;10417929;28;20400;-56
2023/09/23 09:48:48;;;;;;;4.00;0.30;;;;;;;17.58;62.83;100315.25;10416467;28;20050;-55
2023/09/23 09:53:51;;;;;;;1.75;0.35;;;;;;;17.79;62.57;100314.03;10415250;28;20052;-59
2023/09/23 09:58:56;;;;;;;7.15;0.30;;;;;;;18.02;62.04;100312.53;10421128;28;20136;-60
2023/09/23 10:03:59;;;;;;;0.65;0.20;;;;;;;18.17;61.50;100304.84;10422237;28;20139;-60
2023/09/23 10:09:13;;;;;;;2.47;0.30;;;;;;;18.28;60.87;100300.53;10404958;28;20044;-60
2023/09/23 10:14:18;;;;;;;2.70;0.38;;;;;;;18.46;60.15;100307.00;10424664;28;20068;-59
2023/09/23 10:19:33;;;;;;;1.02;0.40;;;;;;;18.68;59.84;100304.63;10404620;28;20450;-60
2023/09/23 10:24:34;;;;;;;1.58;0.20;;;;;;;19.00;58.84;100297.91;10426697;28;20170;-61
2023/09/23 10:29:47;;;;;;;0.80;0.20;;;;;;;19.07;57.71;100289.59;10419115;28;20138;-60
2023/09/23 10:34:58;;;;;;;1.10;0.40;;;;;;;19.22;57.11;100302.81;10422603;28;20049;-61
2023/09/23 10:40:10;;;;;;;0.40;0.15;;;;;;;19.62;56.50;100313.03;10424256;28;20698;-61
2023/09/23 10:45:14;;;;;;;4.68;0.30;;;;;;;19.87;55.94;100312.81;10421380;28;20045;-63
2023/09/23 10:50:15;;;;;;;0.47;0.20;;;;;;;19.80;55.97;100320.28;10421900;28;20455;-63
2023/09/23 10:55:17;;;;;;;2.38;0.20;;;;;;;19.54;55.76;100318.84;10423646;28;20060;-64
2023/09/23 11:00:20;;;;;;;0.43;0.20;;;;;;;19.47;55.80;100324.41;10421593;28;20080;-61
2023/09/23 11:05:22;;;;;;;3.72;0.17;;;;;;;19.71;55.20;100321.72;10405261;28;20045;-60
2023/09/23 11:10:27;;;;;;;1.70;0.30;;;;;;;19.69;54.90;100332.00;10434461;28;20050;-60
2023/09/23 11:15:29;;;;;;;1.85;0.40;;;;;;;20.29;54.46;100325.47;10433287;28;20054;-59
2023/09/23 11:20:32;;;;;;;1.33;0.28;;;;;;;20.47;53.57;100335.38;10417345;28;20092;-60
2023/09/23 11:25:36;;;;;;;2.47;0.20;;;;;;;20.65;52.71;100328.94;10415828;28;20050;-60
2023/09/23 11:30:38;;;;;;;2.38;0.30;;;;;;;20.75;52.99;100343.66;10424532;28;20116;-60
2023/09/23 11:35:41;;;;;;;0.82;0.20;;;;;;;20.68;52.07;100345.69;10426864;28;20072;-59
2023/09/23 11:40:43;;;;;;;1.42;0.70;;;;;;;20.55;52.70;100345.91;10433406;28;20081;-63
2023/09/23 11:45:48;;;;;;;1.42;0.20;;;;;;;20.47;51.78;100341.66;10445124;28;20051;-59
2023/09/23 11:50:51;;;;;;;2.83;0.20;;;;;;;20.83;50.67;100336.94;10423943;28;20080;-58
2023/09/23 11:55:53;;;;;;;1.83;0.20;;;;;;;21.26;49.91;100331.97;10436908;28;20112;-59
2023/09/23 12:00:56;;;;;;;2.60;0.30;;;;;;;21.32;49.73;100341.91;10436307;28;20118;-59
2023/09/23 12:05:58;;;;;;;2.95;0.30;;;;;;;21.83;49.27;100341.94;10420318;28;20111;-60
2023/09/23 12:11:00;;;;;;;2.42;0.30;;;;;;;22.18;47.57;100349.84;10420685;28;20477;-64
2023/09/23 12:16:02;;;;;;;0.98;0.30;;;;;;;22.50;45.84;100349.19;10435386;28;20512;-65
2023/09/23 12:21:04;;;;;;;0.65;0.20;;;;;;;22.52;45.73;100352.50;10421129;28;20128;-63
2023/09/23 12:26:05;;;;;;;0.25;0.10;;;;;;;21.89;46.82;100358.19;10416331;28;20485;-64
2023/09/23 12:31:07;;;;;;;4.68;0.40;;;;;;;21.56;46.92;100353.56;10422874;28;20049;-58
2023/09/23 12:36:08;;;;;;;0.77;0.22;;;;;;;21.50;46.56;100360.84;10428740;28;20079;-60
2023/09/23 12:41:10;;;;;;;3.38;0.40;;;;;;;21.21;45.75;100365.53;10422717;28;20063;-59
2023/09/23 12:46:11;;;;;;;1.83;0.20;;;;;;;21.04;45.54;100364.66;10431190;28;20139;-59
2023/09/23 12:51:13;;;;;;;2.13;0.20;;;;;;;20.62;45.96;100370.38;10422750;28;20045;-60
2023/09/23 12:56:17;;;;;;;2.97;0.30;;;;;;;20.52;46.03;100362.81;10426548;28;20423;-59
2023/09/23 13:01:18;;;;;;;0.98;0.20;;;;;;;20.72;46.65;100368.72;10425423;28;20049;-60
2023/09/23 13:06:20;;;;;;;1.95;0.50;;;;;;;21.28;45.59;100359.91;10421135;28;20045;-59
2023/09/23 13:11:22;;;;;;;2.03;0.60;;;;;;;21.93;44.54;100366.72;10425875;28;20049;-61
2023/09/23 13:16:24;;;;;;;2.17;0.30;;;;;;;22.18;44.55;100363.53;10427045;28;20049;-60
2023/09/23 13:21:25;;;;;;;1.35;0.20;;;;;;;22.06;44.25;100376.47;10427455;28;20057;-58
2023/09/23 13:26:27;;;;;;;1.83;0.50;;;;;;;21.71;44.19;100388.56;10420751;28;20053;-58
2023/09/23 13:31:28;;;;;;;1.45;0.10;;;;;;;21.29;44.68;100394.38;10427133;28;20060;-58
2023/09/23 13:36:30;;;;;;;2.45;0.20;;;;;;;21.20;45.23;100402.97;10432592;28;20064;-58
2023/09/23 13:41:32;;;;;;;2.97;0.30;;;;;;;21.10;45.65;100410.97;10422612;28;20128;-58
2023/09/23 13:46:34;;;;;;;1.35;0.28;;;;;;;20.98;44.98;100408.28;10425633;28;20045;-58
2023/09/23 13:51:36;;;;;;;1.73;0.30;;;;;;;21.12;45.36;100418.94;10430432;28;20072;-59
2023/09/23 13:56:38;;;;;;;1.40;0.17;;;;;;;21.08;45.25;100421.31;10421963;28;20057;-59
2023/09/23 14:01:40;;;;;;;2.15;0.30;;;;;;;20.76;43.91;100438.19;10421104;28;20051;-58
2023/09/23 14:06:41;;;;;;;1.50;0.38;;;;;;;21.61;41.25;100435.72;10426499;28;20426;-58
2023/09/23 14:11:43;;;;;;;1.80;0.40;;;;;;;21.69;40.98;100432.56;10420914;28;20046;-60
2023/09/23 14:16:44;;;;;;;1.63;0.40;;;;;;;21.77;39.20;100436.81;10423186;28;20049;-58
2023/09/23 14:21:46;;;;;;;2.55;0.95;;;;;;;21.66;39.41;100437.69;10421998;28;20167;-58
2023/09/23 14:26:47;;;;;;;1.98;0.25;;;;;;;20.88;39.92;100456.47;10420055;28;20492;-58
2023/09/23 14:31:50;;;;;;;1.48;0.40;;;;;;;20.51;40.01;100443.88;10426458;28;20053;-62
2023/09/23 14:36:53;;;;;;;2.65;0.20;;;;;;;20.35;41.16;100453.63;10423112;28;20046;-61
2023/09/23 14:41:55;;;;;;;1.52;0.30;;;;;;;20.43;41.27;100444.25;10407939;28;20104;-62
2023/09/23 14:46:59;;;;;;;2.67;0.28;;;;;;;20.63;40.84;100456.75;10425064;28;20561;-61
2023/09/23 14:52:00;;;;;;;1.42;0.30;;;;;;;20.55;40.35;100468.81;10427402;28;20049;-59
2023/09/23 14:57:02;;;;;;;0.90;0.30;;;;;;;20.76;39.19;100464.69;10425301;28;20053;-60
2023/09/23 15:02:03;;;;;;;1.73;0.25;;;;;;;20.77;38.83;100463.59;10425394;28;20388;-61
2023/09/23 15:07:05;;;;;;;2.53;0.40;;;;;;;21.06;39.17;100472.69;10409728;28;20047;-59
2023/09/23 15:12:08;;;;;;;2.25;0.35;;;;;;;21.35;38.58;100480.91;10423652;28;20045;-61
2023/09/23 15:17:11;;;;;;;1.00;0.28;;;;;;;21.76;38.35;100484.41;10424166;28;20056;-62
2023/09/23 15:22:13;;;;;;;0.88;0.20;;;;;;;21.76;38.18;100490.72;10429849;28;20049;-63
2023/09/23 15:27:14;;;;;;;2.03;0.45;;;;;;;21.55;38.81;100500.47;10432510;28;20057;-62
2023/09/23 15:32:16;;;;;;;1.27;0.40;;;;;;;21.67;38.40;100503.13;10417460;28;20048;-62
2023/09/23 15:37:17;;;;;;;2.83;0.45;;;;;;;21.65;38.40;100512.66;10413221;28;20085;-61
2023/09/23 15:42:19;;;;;;;3.60;0.38;;;;;;;21.98;38.07;100507.25;10424671;28;20057;-59
2023/09/23 15:47:21;;;;;;;0.88;0.30;;;;;;;22.00;38.30;100512.47;10428411;28;20060;-60
2023/09/23 15:52:22;;;;;;;2.10;0.40;;;;;;;22.13;38.59;100517.59;10435572;28;20111;-60
2023/09/23 15:57:24;;;;;;;2.78;0.30;;;;;;;22.17;38.45;100524.25;10431418;28;20553;-60
2023/09/23 16:02:25;;;;;;;4.00;0.30;;;;;;;22.21;38.34;100531.97;10429104;28;20416;-59
2023/09/23 16:07:27;;;;;;;2.70;0.47;;;;;;;21.94;38.71;100532.63;10429353;28;20120;-59
2023/09/23 16:12:28;;;;;;;2.78;0.40;;;;;;;21.46;38.95;100532.00;10431399;28;20049;-60
2023/09/23 16:17:30;;;;;;;1.17;0.30;;;;;;;21.39;39.58;100536.78;10422967;28;20049;-61
2023/09/23 16:22:31;;;;;;;1.45;0.47;;;;;;;21.24;39.98;100542.75;10429852;28;20037;-59
2023/09/23 16:27:33;;;;;;;0.50;0.22;;;;;;;20.89;40.66;100548.28;10424688;28;20046;-60
2023/09/23 16:32:34;;;;;;;1.35;0.30;;;;;;;20.74;41.02;100557.81;10430725;28;20068;-60
2023/09/23 16:37:36;;;;;;;2.90;0.30;;;;;;;20.47;41.60;100578.44;10425708;28;20049;-60
2023/09/23 16:42:38;;;;;;;1.95;0.47;;;;;;;20.44;41.49;100590.66;10426770;28;20108;-60
2023/09/23 16:47:39;;;;;;;1.95;0.40;;;;;;;20.28;41.74;100586.72;10419386;28;20499;-59
2023/09/23 16:52:41;;;;;;;4.22;0.80;;;;;;;20.15;42.42;100595.13;10423068;28;20077;-58
2023/09/23 16:57:43;;;;;;;1.83;0.30;;;;;;;20.00;42.90;100595.53;10432591;28;20044;-58
2023/09/23 17:02:44;;;;;;;1.85;0.50;;;;;;;19.80;42.77;100601.28;10428163;28;20052;-58
2023/09/23 17:07:46;;;;;;;1.52;0.32;;;;;;;19.51;43.85;100600.16;10421350;28;20057;-57
2023/09/23 17:12:48;;;;;;;0.90;0.20;;;;;;;19.20;44.29;100612.91;10423892;28;20546;-58
2023/09/23 17:17:49;;;;;;;1.63;0.30;;;;;;;18.99;44.74;100612.25;10423667;28;20146;-57
2023/09/23 17:22:51;;;;;;;2.60;0.30;;;;;;;18.84;45.20;100619.97;10424530;28;20055;-59
2023/09/23 17:27:53;;;;;;;2.20;0.40;;;;;;;18.80;45.49;100633.22;10428735;28;20045;-58
2023/09/23 17:32:55;;;;;;;3.58;1.05;;;;;;;18.67;45.58;100646.91;10422710;28;20052;-59
2023/09/23 17:37:56;;;;;;;3.13;0.70;;;;;;;18.52;46.16;100665.44;10418608;28;20565;-57
2023/09/23 17:42:58;;;;;;;2.10;0.47;;;;;;;18.30;46.80;100664.97;10423993;28;20056;-58
2023/09/23 17:48:00;;;;;;;3.75;0.57;;;;;;;18.07;47.54;100673.69;10406117;28;20059;-57
2023/09/23 17:53:03;;;;;;;1.45;0.50;;;;;;;17.76;48.38;100675.28;10420226;28;20072;-57
2023/09/23 17:58:05;;;;;;;4.00;0.57;;;;;;;17.55;49.30;100693.53;10415348;28;20084;-57
2023/09/23 18:03:10;;;;;;;2.15;0.50;;;;;;;17.48;49.54;100687.28;10425797;28;20049;-58
2023/09/23 18:08:15;;;;;;;2.00;0.52;;;;;;;17.48;49.52;100692.72;10421819;28;20057;-57
2023/09/23 18:13:16;;;;;;;2.60;0.70;;;;;;;17.34;50.16;100702.78;10428009;28;20056;-56
2023/09/23 18:18:18;;;;;;;2.03;0.40;;;;;;;17.20;50.70;100711.97;10420999;28;20057;-56
2023/09/23 18:23:19;;;;;;;2.28;1.02;;;;;;;17.09;51.25;100727.06;10424284;28;20057;-56
2023/09/23 18:28:21;;;;;;;2.10;0.60;;;;;;;17.01;51.25;100738.13;10417859;28;20051;-56
2023/09/23 18:33:23;;;;;;;2.08;0.60;;;;;;;16.91;52.00;100741.25;10419794;28;20095;-57
2023/09/23 18:38:25;;;;;;;3.65;1.10;;;;;;;16.70;52.56;100755.81;10423650;28;20193;-57
2023/09/23 18:43:26;;;;;;;5.00;2.65;;;;;;;16.49;53.40;100764.97;10429124;28;20049;-56
2023/09/23 18:48:28;;;;;;;4.05;1.70;;;;;;;16.33;53.97;100777.03;10428193;28;20127;-57
2023/09/23 18:53:33;;;;;;;6.28;2.42;;;;;;;16.13;54.42;100778.81;10428088;28;20140;-56
2023/09/23 18:58:38;;;;;;;5.85;1.70;;;;;;;16.09;55.03;100794.66;10431340;28;20049;-57
2023/09/23 19:03:41;;;;;;;3.13;1.20;;;;;;;15.97;55.29;100802.53;10425276;28;20164;-57
2023/09/23 19:08:43;;;;;;;4.20;1.17;;;;;;;15.89;55.76;100804.56;10438110;28;20072;-56
2023/09/23 19:13:44;;;;;;;1.55;0.90;;;;;;;15.84;55.47;100808.72;10425315;28;20817;-57
2023/09/23 19:18:46;;;;;;;6.53;1.08;;;;;;;15.78;55.77;100808.69;10435642;28;20052;-57
2023/09/23 19:23:47;;;;;;;8.88;3.85;;;;;;;15.71;56.37;100816.72;10428471;28;20047;-57
2023/09/23 19:28:49;;;;;;;2.05;1.25;;;;;;;15.62;56.77;100831.47;10429568;28;20044;-58
2023/09/23 19:33:51;;;;;;;5.95;2.90;;;;;;;15.52;57.11;100834.53;10432443;28;20107;-58
2023/09/23 19:38:53;;;;;;;11.40;5.30;;;;;;;15.40;57.71;100845.06;10430116;28;20096;-57
2023/09/23 19:43:55;;;;;;;11.93;6.07;;;;;;;15.30;58.50;100858.09;10416285;28;20041;-57
2023/09/23 19:48:58;;;;;;;12.57;5.72;;;;;;;15.20;58.58;100854.88;10429750;28;20046;-58
2023/09/23 19:53:59;;;;;;;14.60;7.60;;;;;;;15.07;58.97;100852.88;10432269;28;20132;-58
2023/09/23 19:59:01;;;;;;;24.63;11.32;;;;;;;14.96;59.29;100862.34;10414828;28;20048;-58
2023/09/23 20:04:02;;;;;;;14.95;6.75;;;;;;;14.90;59.30;100871.22;10423826;28;20041;-58
2023/09/23 20:09:04;;;;;;;19.10;7.90;;;;;;;14.81;59.64;100870.53;10428043;28;20049;-58
2023/09/23 20:14:06;;;;;;;10.25;6.43;;;;;;;14.73;60.04;100876.06;10434100;28;20464;-58
2023/09/23 20:19:08;;;;;;;10.13;4.82;;;;;;;14.63;60.19;100875.50;10431842;28;20077;-59
2023/09/23 20:24:09;;;;;;;15.77;6.63;;;;;;;14.53;60.59;100883.03;10429491;28;20038;-57
2023/09/23 20:29:11;;;;;;;10.75;4.85;;;;;;;14.48;60.67;100889.03;10424220;28;20041;-56
2023/09/23 20:34:21;;;;;;;11.02;5.25;;;;;;;14.41;60.94;100898.91;10425329;28;20033;-55
2023/09/23 20:39:30;;;;;;;22.95;10.43;;;;;;;14.32;61.28;100898.19;10431469;28;20048;-55
2023/09/23 20:44:31;;;;;;;17.33;9.18;;;;;;;14.22;61.64;100897.63;10428056;28;20044;-57
2023/09/23 20:49:34;;;;;;;17.23;9.65;;;;;;;14.15;61.70;100908.34;10428486;28;20052;-55
2023/09/23 20:54:35;;;;;;;16.42;7.82;;;;;;;14.15;61.90;100918.31;10429874;28;20045;-56
2023/09/23 20:59:38;;;;;;;16.75;8.75;;;;;;;14.08;62.16;100927.19;10427688;28;20503;-55
2023/09/23 21:04:40;;;;;;;15.63;7.30;;;;;;;14.03;62.21;100934.97;10426216;28;20111;-56
2023/09/23 21:09:42;;;;;;;17.30;9.88;;;;;;;13.94;62.56;100948.75;10393552;28;20098;-56
2023/09/23 21:14:44;;;;;;;19.67;11.00;;;;;;;13.90;62.66;100945.59;10415981;28;20056;-56
2023/09/23 21:19:45;;;;;;;18.98;11.27;;;;;;;13.70;63.20;100958.75;10425791;28;20531;-55
2023/09/23 21:24:47;;;;;;;21.52;11.52;;;;;;;13.55;64.18;100955.19;10422298;28;20041;-55
2023/09/23 21:29:48;;;;;;;16.92;9.48;;;;;;;13.63;63.38;100958.66;10426664;28;20137;-55
2023/09/23 21:34:50;;;;;;;14.82;7.03;;;;;;;13.62;63.36;100975.88;10406798;28;20388;-58
2023/09/23 21:39:52;;;;;;;10.95;7.15;;;;;;;13.31;64.34;100966.97;10428560;28;20063;-56
2023/09/23 21:44:54;;;;;;;13.88;6.25;;;;;;;13.29;64.30;100970.72;10429992;28;20045;-56
2023/09/23 21:49:55;;;;;;;8.25;4.72;;;;;;;13.35;64.07;100976.41;10420778;28;20045;-57
2023/09/23 21:54:57;;;;;;;9.65;3.28;;;;;;;13.38;64.04;100984.16;10421822;28;20064;-56
2023/09/23 21:59:58;;;;;;;12.40;7.28;;;;;;;13.36;63.96;100984.34;10427015;28;20057;-56
2023/09/23 22:05:00;;;;;;;12.05;6.78;;;;;;;13.32;64.34;100992.97;10426799;28;21736;-56
2023/09/23 22:10:01;;;;;;;16.67;7.00;;;;;;;13.17;64.80;100988.31;10429225;28;20427;-56
2023/09/23 22:15:04;;;;;;;9.07;6.00;;;;;;;13.18;64.72;100995.38;10424434;28;20060;-56
2023/09/23 22:20:06;;;;;;;15.57;8.43;;;;;;;13.11;64.85;101018.69;10422873;28;20130;-57
2023/09/23 22:25:11;;;;;;;12.98;6.78;;;;;;;12.98;65.08;101018.44;10427544;28;20071;-56
2023/09/23 22:30:15;;;;;;;13.00;8.45;;;;;;;12.88;65.23;101005.97;10422453;28;20040;-57
2023/09/23 22:35:17;;;;;;;12.77;7.30;;;;;;;12.81;65.33;101010.38;10420520;28;20048;-56
2023/09/23 22:40:19;;;;;;;11.23;6.95;;;;;;;12.80;65.24;101019.50;10429736;28;20426;-56
2023/09/23 22:45:20;;;;;;;11.05;4.40;;;;;;;12.72;65.24;101018.69;10418388;28;20060;-57
2023/09/23 22:50:40;;;;;;;9.10;5.00;;;;;;;12.72;65.53;101022.25;10427080;28;20048;-56
2023/09/23 22:55:41;;;;;;;7.78;4.55;;;;;;;12.74;65.76;101025.59;10428725;28;20049;-58
2023/09/23 23:00:43;;;;;;;12.15;6.95;;;;;;;12.72;65.54;101024.94;10416793;28;20084;-58
2023/09/23 23:05:44;;;;;;;9.60;5.93;;;;;;;12.68;65.23;101020.91;10426599;28;20134;-57
2023/09/23 23:10:46;;;;;;;7.38;4.95;;;;;;;12.62;65.78;101027.84;10417666;28;20057;-57